sensor_id;sensor_type;location;lat;lon;timestamp;P1;durP1;ratioP1;P2;durP2;ratioP2
2201;SDS011;1107;48.654;9.250;2024-03-23T10:39:28;3.67;;;3.38;;
2201;SDS011;1107;48.654;9.250;2024-03-23T10:41:57;4.97;;;3.50;;
2201;SDS011;1107;48.654;9.250;2024-03-23T10:44:26;4.17;;;3.87;;
2201;SDS011;1107;48.654;9.250;2024-03-23T10:46:54;5.43;;;3.17;;
2201;SDS011;1107;48.654;9.250;2024-03-23T10:49:25;4.90;;;3.20;;
2201;SDS011;1107;48.654;9.250;2024-03-23T10:51:51;4.10;;;3.80;;
2201;SDS011;1107;48.654;9.250;2024-03-23T10:54:19;5.37;;;4.83;;
2201;SDS011;1107;48.654;9.250;2024-03-23T10:56:46;5.00;;;4.20;;
2201;SDS011;1107;48.654;9.250;2024-03-23T10:59:17;5.10;;;3.90;;
2201;SDS011;1107;48.654;9.250;2024-03-23T11:01:56;4.30;;;4.00;;
2201;SDS011;1107;48.654;9.250;2024-03-23T11:04:30;3.17;;;2.97;;
2201;SDS011;1107;48.654;9.250;2024-03-23T11:06:58;2.77;;;1.90;;
2201;SDS011;1107;48.654;9.250;2024-03-23T11:09:43;3.60;;;2.70;;
2201;SDS011;1107;48.654;9.250;2024-03-23T11:15:00;2.93;;;2.03;;
2201;SDS011;1107;48.654;9.250;2024-03-23T11:17:28;1.97;;;1.60;;
2201;SDS011;1107;48.654;9.250;2024-03-23T11:19:56;2.37;;;2.17;;
2201;SDS011;1107;48.654;9.250;2024-03-23T11:22:39;1.77;;;1.67;;
2201;SDS011;1107;48.654;9.250;2024-03-23T11:25:14;1.87;;;1.67;;
2201;SDS011;1107;48.654;9.250;2024-03-23T11:27:41;2.77;;;1.60;;
2201;SDS011;1107;48.654;9.250;2024-03-23T11:32:54;2.10;;;1.90;;
2201;SDS011;1107;48.654;9.250;2024-03-23T11:35:25;2.43;;;2.07;;
2201;SDS011;1107;48.654;9.250;2024-03-23T11:38:08;2.00;;;1.80;;
2201;SDS011;1107;48.654;9.250;2024-03-23T11:40:36;2.40;;;2.20;;
2201;SDS011;1107;48.654;9.250;2024-03-23T11:43:03;3.97;;;2.33;;
2201;SDS011;1107;48.654;9.250;2024-03-23T11:45:35;2.37;;;2.17;;
2201;SDS011;1107;48.654;9.250;2024-03-23T11:48:02;3.77;;;2.27;;
2201;SDS011;1107;48.654;9.250;2024-03-23T11:50:33;5.50;;;2.40;;
2201;SDS011;1107;48.654;9.250;2024-03-23T11:53:06;6.37;;;3.03;;
2201;SDS011;1107;48.654;9.250;2024-03-23T11:55:47;6.53;;;2.40;;
2201;SDS011;1107;48.654;9.250;2024-03-23T11:58:15;3.13;;;2.47;;
2201;SDS011;1107;48.654;9.250;2024-03-23T12:00:49;3.23;;;2.00;;
2201;SDS011;1107;48.654;9.250;2024-03-23T12:03:16;3.20;;;2.90;;
2201;SDS011;1107;48.654;9.250;2024-03-23T12:05:47;2.97;;;2.67;;
2201;SDS011;1107;48.654;9.250;2024-03-23T12:08:16;4.13;;;2.80;;
2201;SDS011;1107;48.654;9.250;2024-03-23T12:10:48;2.03;;;1.83;;
2201;SDS011;1107;48.654;9.250;2024-03-23T12:13:16;5.10;;;3.30;;
2201;SDS011;1107;48.654;9.250;2024-03-23T12:15:45;3.17;;;2.43;;
2201;SDS011;1107;48.654;9.250;2024-03-23T12:18:12;3.03;;;2.47;;
2201;SDS011;1107;48.654;9.250;2024-03-23T12:20:39;3.93;;;1.80;;
2201;SDS011;1107;48.654;9.250;2024-03-23T12:23:06;2.37;;;1.80;;
2201;SDS011;1107;48.654;9.250;2024-03-23T12:25:37;7.23;;;2.30;;
2201;SDS011;1107;48.654;9.250;2024-03-23T12:28:04;3.23;;;1.90;;
2201;SDS011;1107;48.654;9.250;2024-03-23T12:30:35;2.70;;;2.10;;
2201;SDS011;1107;48.654;9.250;2024-03-23T12:33:05;2.23;;;2.03;;
2201;SDS011;1107;48.654;9.250;2024-03-23T12:35:32;7.00;;;3.20;;
2201;SDS011;1107;48.654;9.250;2024-03-23T12:37:58;4.97;;;2.10;;
2201;SDS011;1107;48.654;9.250;2024-03-23T12:40:25;6.23;;;2.90;;
2201;SDS011;1107;48.654;9.250;2024-03-23T12:42:52;2.50;;;2.30;;
2201;SDS011;1107;48.654;9.250;2024-03-23T12:45:18;2.60;;;2.40;;
2201;SDS011;1107;48.654;9.250;2024-03-23T12:47:44;3.90;;;2.90;;
2201;SDS011;1107;48.654;9.250;2024-03-23T12:50:13;3.67;;;2.43;;
2201;SDS011;1107;48.654;9.250;2024-03-23T12:52:39;5.03;;;2.30;;
2201;SDS011;1107;48.654;9.250;2024-03-23T12:55:07;4.63;;;3.30;;
2201;SDS011;1107;48.654;9.250;2024-03-23T12:57:33;2.83;;;2.63;;
2201;SDS011;1107;48.654;9.250;2024-03-23T13:00:00;3.40;;;3.10;;
2201;SDS011;1107;48.654;9.250;2024-03-23T13:02:26;5.88;;;3.63;;
2201;SDS011;1107;48.654;9.250;2024-03-23T13:04:53;4.97;;;3.30;;
2201;SDS011;1107;48.654;9.250;2024-03-23T13:07:21;3.07;;;2.77;;
2201;SDS011;1107;48.654;9.250;2024-03-23T13:09:50;3.67;;;3.47;;
2201;SDS011;1107;48.654;9.250;2024-03-23T13:12:16;4.23;;;3.50;;
2201;SDS011;1107;48.654;9.250;2024-03-23T13:14:44;3.27;;;2.97;;
2201;SDS011;1107;48.654;9.250;2024-03-23T13:17:10;5.63;;;3.30;;
2201;SDS011;1107;48.654;9.250;2024-03-23T13:19:37;4.10;;;3.40;;
2201;SDS011;1107;48.654;9.250;2024-03-23T13:22:03;3.67;;;3.10;;
2201;SDS011;1107;48.654;9.250;2024-03-23T13:24:32;4.10;;;3.10;;
2201;SDS011;1107;48.654;9.250;2024-03-23T13:26:58;5.43;;;3.00;;
2201;SDS011;1107;48.654;9.250;2024-03-23T13:29:25;5.37;;;3.07;;
2201;SDS011;1107;48.654;9.250;2024-03-23T13:31:51;2.20;;;2.00;;
2201;SDS011;1107;48.654;9.250;2024-03-23T13:34:18;1.73;;;1.30;;
2201;SDS011;1107;48.654;9.250;2024-03-23T13:36:44;1.50;;;1.10;;
2201;SDS011;1107;48.654;9.250;2024-03-23T16:52:40;2.50;;;1.30;;
2201;SDS011;1107;48.654;9.250;2024-03-23T16:55:07;3.05;;;1.27;;
2201;SDS011;1107;48.654;9.250;2024-03-23T16:57:33;2.00;;;1.40;;
2201;SDS011;1107;48.654;9.250;2024-03-23T17:00:00;1.30;;;1.00;;
2201;SDS011;1107;48.654;9.250;2024-03-23T17:02:26;2.00;;;1.20;;
2201;SDS011;1107;48.654;9.250;2024-03-23T17:04:54;1.95;;;1.30;;
2201;SDS011;1107;48.654;9.250;2024-03-23T17:07:22;2.30;;;2.10;;
2201;SDS011;1107;48.654;9.250;2024-03-23T17:09:49;2.20;;;2.00;;
2201;SDS011;1107;48.654;9.250;2024-03-23T17:12:15;1.90;;;1.65;;
2201;SDS011;1107;48.654;9.250;2024-03-23T17:14:42;1.42;;;1.23;;
2201;SDS011;1107;48.654;9.250;2024-03-23T17:17:08;2.87;;;1.10;;
2201;SDS011;1107;48.654;9.250;2024-03-23T17:19:35;1.48;;;1.20;;
2201;SDS011;1107;48.654;9.250;2024-03-23T17:22:01;1.60;;;1.40;;
2201;SDS011;1107;48.654;9.250;2024-03-23T17:24:30;1.87;;;1.20;;
2201;SDS011;1107;48.654;9.250;2024-03-23T17:26:57;1.50;;;1.13;;
2201;SDS011;1107;48.654;9.250;2024-03-23T17:29:24;7.93;;;5.28;;
2201;SDS011;1107;48.654;9.250;2024-03-23T17:31:49;4.20;;;1.30;;
2201;SDS011;1107;48.654;9.250;2024-03-23T17:34:16;1.80;;;1.70;;
2201;SDS011;1107;48.654;9.250;2024-03-23T17:36:42;1.60;;;1.20;;
2201;SDS011;1107;48.654;9.250;2024-03-23T17:39:10;1.80;;;1.48;;
2201;SDS011;1107;48.654;9.250;2024-03-23T17:41:38;2.80;;;2.60;;
2201;SDS011;1107;48.654;9.250;2024-03-23T17:44:05;1.70;;;1.50;;
2201;SDS011;1107;48.654;9.250;2024-03-23T17:46:31;3.40;;;1.33;;
2201;SDS011;1107;48.654;9.250;2024-03-23T17:48:58;7.10;;;3.22;;
2201;SDS011;1107;48.654;9.250;2024-03-23T17:51:24;2.30;;;1.40;;
2201;SDS011;1107;48.654;9.250;2024-03-23T17:53:52;1.83;;;1.55;;
2201;SDS011;1107;48.654;9.250;2024-03-23T17:56:18;3.30;;;1.60;;
2201;SDS011;1107;48.654;9.250;2024-03-23T17:58:48;2.30;;;1.00;;
2201;SDS011;1107;48.654;9.250;2024-03-23T18:01:14;1.40;;;1.30;;
2201;SDS011;1107;48.654;9.250;2024-03-23T18:03:49;3.25;;;1.25;;
2201;SDS011;1107;48.654;9.250;2024-03-23T18:06:16;1.83;;;1.00;;
2201;SDS011;1107;48.654;9.250;2024-03-23T18:08:43;2.20;;;2.00;;
2201;SDS011;1107;48.654;9.250;2024-03-23T18:11:09;2.17;;;0.80;;
2201;SDS011;1107;48.654;9.250;2024-03-23T18:13:36;1.40;;;0.90;;
2201;SDS011;1107;48.654;9.250;2024-03-23T18:16:04;3.00;;;1.13;;
2201;SDS011;1107;48.654;9.250;2024-03-23T18:18:31;1.35;;;1.00;;
2201;SDS011;1107;48.654;9.250;2024-03-23T18:21:00;2.10;;;1.70;;
2201;SDS011;1107;48.654;9.250;2024-03-23T18:23:27;4.15;;;2.22;;
2201;SDS011;1107;48.654;9.250;2024-03-23T18:25:53;1.97;;;1.80;;
2201;SDS011;1107;48.654;9.250;2024-03-23T18:28:21;4.55;;;1.75;;
2201;SDS011;1107;48.654;9.250;2024-03-23T18:30:55;1.77;;;1.58;;
2201;SDS011;1107;48.654;9.250;2024-03-23T18:33:24;2.22;;;2.03;;
2201;SDS011;1107;48.654;9.250;2024-03-23T18:35:50;2.67;;;2.00;;
2201;SDS011;1107;48.654;9.250;2024-03-23T18:38:17;1.77;;;1.67;;
2201;SDS011;1107;48.654;9.250;2024-03-23T18:40:44;3.25;;;2.90;;
2201;SDS011;1107;48.654;9.250;2024-03-23T18:43:11;25.13;;;16.98;;
2201;SDS011;1107;48.654;9.250;2024-03-23T18:45:44;1.77;;;1.60;;
2201;SDS011;1107;48.654;9.250;2024-03-23T18:48:12;2.63;;;1.80;;
2201;SDS011;1107;48.654;9.250;2024-03-23T18:50:39;2.17;;;1.00;;
2201;SDS011;1107;48.654;9.250;2024-03-23T18:53:07;6.55;;;6.00;;
2201;SDS011;1107;48.654;9.250;2024-03-23T18:55:34;2.95;;;1.48;;
2201;SDS011;1107;48.654;9.250;2024-03-23T18:58:01;7.53;;;1.50;;
2201;SDS011;1107;48.654;9.250;2024-03-23T19:00:28;7.57;;;1.55;;
2201;SDS011;1107;48.654;9.250;2024-03-23T19:02:55;1.30;;;1.08;;
2201;SDS011;1107;48.654;9.250;2024-03-23T19:05:21;1.88;;;1.67;;
2201;SDS011;1107;48.654;9.250;2024-03-23T19:07:50;1.60;;;1.50;;
2201;SDS011;1107;48.654;9.250;2024-03-23T19:10:17;1.63;;;1.20;;
2201;SDS011;1107;48.654;9.250;2024-03-23T19:12:46;1.40;;;1.15;;
2201;SDS011;1107;48.654;9.250;2024-03-23T19:15:12;2.20;;;2.00;;
2201;SDS011;1107;48.654;9.250;2024-03-23T19:17:39;2.45;;;1.80;;
2201;SDS011;1107;48.654;9.250;2024-03-23T19:20:05;1.58;;;1.40;;
2201;SDS011;1107;48.654;9.250;2024-03-23T19:22:34;1.92;;;1.40;;
2201;SDS011;1107;48.654;9.250;2024-03-23T19:25:01;1.70;;;1.40;;
2201;SDS011;1107;48.654;9.250;2024-03-23T19:27:28;4.63;;;1.60;;
2201;SDS011;1107;48.654;9.250;2024-03-23T19:29:55;67.80;;;26.67;;
2201;SDS011;1107;48.654;9.250;2024-03-23T19:32:22;10.75;;;7.45;;
2201;SDS011;1107;48.654;9.250;2024-03-23T19:34:48;4.20;;;3.90;;
2201;SDS011;1107;48.654;9.250;2024-03-23T19:37:15;2.10;;;2.00;;
2201;SDS011;1107;48.654;9.250;2024-03-23T19:39:41;2.73;;;2.53;;
2201;SDS011;1107;48.654;9.250;2024-03-23T19:42:10;3.55;;;1.65;;
2201;SDS011;1107;48.654;9.250;2024-03-23T19:44:36;3.08;;;2.88;;
2201;SDS011;1107;48.654;9.250;2024-03-23T19:47:02;2.95;;;1.95;;
2201;SDS011;1107;48.654;9.250;2024-03-23T19:49:29;4.28;;;3.97;;
2201;SDS011;1107;48.654;9.250;2024-03-23T19:51:56;3.50;;;3.30;;
2201;SDS011;1107;48.654;9.250;2024-03-23T19:54:22;5.77;;;4.90;;
2201;SDS011;1107;48.654;9.250;2024-03-23T19:56:49;2.85;;;2.65;;
2201;SDS011;1107;48.654;9.250;2024-03-23T19:59:16;3.60;;;2.30;;
2201;SDS011;1107;48.654;9.250;2024-03-23T20:01:43;2.83;;;2.10;;
2201;SDS011;1107;48.654;9.250;2024-03-23T20:04:10;1.65;;;1.55;;
2201;SDS011;1107;48.654;9.250;2024-03-23T20:06:37;2.20;;;2.00;;
2201;SDS011;1107;48.654;9.250;2024-03-23T20:09:04;4.57;;;2.20;;
2201;SDS011;1107;48.654;9.250;2024-03-23T20:11:32;2.63;;;2.42;;
2201;SDS011;1107;48.654;9.250;2024-03-23T20:13:58;2.92;;;2.72;;
2201;SDS011;1107;48.654;9.250;2024-03-23T20:16:26;2.53;;;1.85;;
2201;SDS011;1107;48.654;9.250;2024-03-23T20:18:53;3.88;;;3.58;;
2201;SDS011;1107;48.654;9.250;2024-03-23T20:21:20;2.70;;;2.08;;
2201;SDS011;1107;48.654;9.250;2024-03-23T20:23:46;4.85;;;4.45;;
2201;SDS011;1107;48.654;9.250;2024-03-23T20:26:13;3.08;;;2.88;;
2201;SDS011;1107;48.654;9.250;2024-03-23T20:28:40;3.65;;;2.55;;
2201;SDS011;1107;48.654;9.250;2024-03-23T20:31:07;2.40;;;2.20;;
2201;SDS011;1107;48.654;9.250;2024-03-23T20:33:34;2.60;;;1.80;;
2201;SDS011;1107;48.654;9.250;2024-03-23T20:36:02;5.45;;;1.45;;
2201;SDS011;1107;48.654;9.250;2024-03-23T20:38:28;2.35;;;2.15;;
2201;SDS011;1107;48.654;9.250;2024-03-23T20:40:55;1.98;;;1.70;;
2201;SDS011;1107;48.654;9.250;2024-03-23T20:43:23;2.28;;;2.08;;
2201;SDS011;1107;48.654;9.250;2024-03-23T20:45:54;2.05;;;1.92;;
2201;SDS011;1107;48.654;9.250;2024-03-23T20:48:20;6.18;;;3.05;;
2201;SDS011;1107;48.654;9.250;2024-03-23T20:50:56;2.83;;;2.28;;
2201;SDS011;1107;48.654;9.250;2024-03-23T20:53:22;4.18;;;2.92;;
2201;SDS011;1107;48.654;9.250;2024-03-23T20:55:50;2.95;;;2.50;;
2201;SDS011;1107;48.654;9.250;2024-03-23T20:58:17;2.67;;;2.47;;
2201;SDS011;1107;48.654;9.250;2024-03-23T21:00:44;2.58;;;2.08;;
2201;SDS011;1107;48.654;9.250;2024-03-23T21:03:10;1.80;;;1.70;;
2201;SDS011;1107;48.654;9.250;2024-03-23T21:05:37;2.15;;;2.05;;
2201;SDS011;1107;48.654;9.250;2024-03-23T21:08:05;3.88;;;2.05;;
2201;SDS011;1107;48.654;9.250;2024-03-23T21:10:32;1.98;;;1.80;;
2201;SDS011;1107;48.654;9.250;2024-03-23T21:12:58;2.40;;;2.20;;
2201;SDS011;1107;48.654;9.250;2024-03-23T21:15:25;4.15;;;2.13;;
2201;SDS011;1107;48.654;9.250;2024-03-23T21:17:51;2.08;;;1.88;;
2201;SDS011;1107;48.654;9.250;2024-03-23T21:20:18;3.30;;;2.00;;
2201;SDS011;1107;48.654;9.250;2024-03-23T21:22:44;6.25;;;1.77;;
2201;SDS011;1107;48.654;9.250;2024-03-23T21:25:13;3.10;;;2.90;;
2201;SDS011;1107;48.654;9.250;2024-03-23T21:27:39;5.55;;;3.03;;
2201;SDS011;1107;48.654;9.250;2024-03-23T21:30:06;7.43;;;5.18;;
2201;SDS011;1107;48.654;9.250;2024-03-23T21:32:32;5.15;;;4.85;;
2201;SDS011;1107;48.654;9.250;2024-03-23T21:34:59;3.22;;;3.00;;
2201;SDS011;1107;48.654;9.250;2024-03-23T21:37:25;2.50;;;2.30;;
2201;SDS011;1107;48.654;9.250;2024-03-23T21:39:52;1.90;;;1.80;;
2201;SDS011;1107;48.654;9.250;2024-03-23T21:42:20;2.90;;;2.63;;
2201;SDS011;1107;48.654;9.250;2024-03-23T21:44:47;1.73;;;1.63;;
2201;SDS011;1107;48.654;9.250;2024-03-23T21:47:13;3.70;;;2.40;;
2201;SDS011;1107;48.654;9.250;2024-03-23T21:49:39;2.20;;;2.00;;
2201;SDS011;1107;48.654;9.250;2024-03-23T21:52:06;2.20;;;2.03;;
2201;SDS011;1107;48.654;9.250;2024-03-23T21:54:32;2.50;;;2.30;;
2201;SDS011;1107;48.654;9.250;2024-03-23T21:56:59;14.93;;;10.43;;
2201;SDS011;1107;48.654;9.250;2024-03-23T21:59:27;2.00;;;1.80;;
2201;SDS011;1107;48.654;9.250;2024-03-23T22:01:54;3.90;;;3.22;;
2201;SDS011;1107;48.654;9.250;2024-03-23T22:04:20;7.33;;;5.93;;
2201;SDS011;1107;48.654;9.250;2024-03-23T22:06:47;8.07;;;7.53;;
2201;SDS011;1107;48.654;9.250;2024-03-23T22:09:13;6.18;;;5.60;;
2201;SDS011;1107;48.654;9.250;2024-03-23T22:11:40;50.05;;;35.25;;
2201;SDS011;1107;48.654;9.250;2024-03-23T22:14:06;74.93;;;40.07;;
2201;SDS011;1107;48.654;9.250;2024-03-23T22:16:34;184.60;;;81.82;;
2201;SDS011;1107;48.654;9.250;2024-03-23T22:19:00;50.58;;;23.25;;
2201;SDS011;1107;48.654;9.250;2024-03-23T22:21:27;37.35;;;18.77;;
2201;SDS011;1107;48.654;9.250;2024-03-23T22:23:53;33.90;;;13.73;;
2201;SDS011;1107;48.654;9.250;2024-03-23T22:26:20;13.60;;;8.75;;
2201;SDS011;1107;48.654;9.250;2024-03-23T22:28:46;36.37;;;15.60;;
2201;SDS011;1107;48.654;9.250;2024-03-23T22:31:13;40.35;;;19.98;;
2201;SDS011;1107;48.654;9.250;2024-03-23T22:33:41;6.13;;;4.93;;
2201;SDS011;1107;48.654;9.250;2024-03-23T22:36:08;6.85;;;6.38;;
2201;SDS011;1107;48.654;9.250;2024-03-23T22:38:33;3.23;;;3.03;;
2201;SDS011;1107;48.654;9.250;2024-03-23T22:41:01;2.45;;;2.25;;
2201;SDS011;1107;48.654;9.250;2024-03-23T22:43:29;1.80;;;1.40;;
2201;SDS011;1107;48.654;9.250;2024-03-23T22:45:56;3.67;;;3.47;;
2201;SDS011;1107;48.654;9.250;2024-03-23T22:48:24;2.67;;;2.47;;
2201;SDS011;1107;48.654;9.250;2024-03-23T22:50:54;2.10;;;1.90;;
2201;SDS011;1107;48.654;9.250;2024-03-23T22:53:22;2.13;;;2.03;;
2201;SDS011;1107;48.654;9.250;2024-03-23T22:55:50;8.10;;;7.40;;
2201;SDS011;1107;48.654;9.250;2024-03-23T22:58:17;11.63;;;4.32;;
2201;SDS011;1107;48.654;9.250;2024-03-23T23:00:45;6.75;;;6.15;;
2201;SDS011;1107;48.654;9.250;2024-03-23T23:03:14;9.88;;;8.98;;
2201;SDS011;1107;48.654;9.250;2024-03-23T23:05:42;32.95;;;19.48;;
2201;SDS011;1107;48.654;9.250;2024-03-23T23:08:10;84.18;;;36.25;;
2201;SDS011;1107;48.654;9.250;2024-03-23T23:10:44;18.60;;;14.15;;
2201;SDS011;1107;48.654;9.250;2024-03-23T23:13:10;43.30;;;28.33;;
2201;SDS011;1107;48.654;9.250;2024-03-23T23:15:37;50.08;;;27.63;;
2201;SDS011;1107;48.654;9.250;2024-03-23T23:18:03;7.43;;;6.80;;
2201;SDS011;1107;48.654;9.250;2024-03-23T23:20:32;2.75;;;2.55;;
2201;SDS011;1107;48.654;9.250;2024-03-23T23:22:58;2.50;;;2.30;;
2201;SDS011;1107;48.654;9.250;2024-03-23T23:25:26;3.50;;;3.28;;
2201;SDS011;1107;48.654;9.250;2024-03-23T23:27:52;6.05;;;5.70;;
2201;SDS011;1107;48.654;9.250;2024-03-23T23:30:19;1.48;;;1.20;;
2201;SDS011;1107;48.654;9.250;2024-03-23T23:32:45;2.10;;;1.90;;
2201;SDS011;1107;48.654;9.250;2024-03-23T23:35:12;1.38;;;1.08;;
2201;SDS011;1107;48.654;9.250;2024-03-23T23:37:38;6.23;;;5.60;;
2201;SDS011;1107;48.654;9.250;2024-03-23T23:40:06;1.73;;;1.20;;
2201;SDS011;1107;48.654;9.250;2024-03-23T23:42:34;1.30;;;1.05;;
2201;SDS011;1107;48.654;9.250;2024-03-23T23:45:01;16.33;;;13.25;;
2201;SDS011;1107;48.654;9.250;2024-03-23T23:47:27;4.18;;;3.88;;
2201;SDS011;1107;48.654;9.250;2024-03-23T23:49:54;5.85;;;5.30;;
2201;SDS011;1107;48.654;9.250;2024-03-23T23:52:20;2.47;;;2.37;;
2201;SDS011;1107;48.654;9.250;2024-03-23T23:54:47;5.63;;;5.03;;
2201;SDS011;1107;48.654;9.250;2024-03-23T23:57:14;15.35;;;6.47;;
2201;SDS011;1107;48.654;9.250;2024-03-23T23:59:43;2.10;;;2.00;;
